createdAt,value
2022-11-26T00:02:29.243Z,28.00
2022-11-26T00:07:29.868Z,27.08
2022-11-26T00:09:59.394Z,25.60
2022-11-26T00:12:31.341Z,30.05
2022-11-26T00:15:14.495Z,25.67
2022-11-26T00:17:41.745Z,24.92
2022-11-26T00:20:09.618Z,29.13
2022-11-26T00:22:49.715Z,22.13
2022-11-26T00:25:47.108Z,24.75
2022-11-26T00:28:38.474Z,30.85
2022-11-26T00:31:15.789Z,29.98
2022-11-26T00:33:43.117Z,32.70
2022-11-26T00:36:21.933Z,29.60
2022-11-26T00:38:55.876Z,27.50
2022-11-26T00:41:29.082Z,27.70
2022-11-26T00:43:56.407Z,25.20
2022-11-26T00:46:23.757Z,24.05
2022-11-26T00:48:52.170Z,41.40
2022-11-26T00:51:26.461Z,53.25
2022-11-26T00:54:02.165Z,30.73
2022-11-26T00:56:33.876Z,28.10
2022-11-26T00:59:05.513Z,24.38
2022-11-26T01:01:33.186Z,30.85
2022-11-26T01:04:00.469Z,26.63
2022-11-26T01:06:38.902Z,28.60
2022-11-26T01:09:07.920Z,29.15
2022-11-26T01:11:35.121Z,30.48
2022-11-26T01:14:02.697Z,27.55
2022-11-26T01:16:36.028Z,23.27
2022-11-26T01:19:04.189Z,26.05
2022-11-26T01:21:31.951Z,26.38
2022-11-26T01:23:59.179Z,29.13
2022-11-26T01:26:33.794Z,24.27
2022-11-26T01:29:00.984Z,24.50
2022-11-26T01:31:29.892Z,27.33
2022-11-26T01:33:57.876Z,24.38
2022-11-26T01:36:31.450Z,26.67
2022-11-26T01:39:06.716Z,25.65
2022-11-26T01:42:37.635Z,26.50
2022-11-26T01:45:19.095Z,26.63
2022-11-26T01:47:49.268Z,23.55
2022-11-26T01:50:31.234Z,25.25
2022-11-26T01:53:11.116Z,26.35
2022-11-26T01:55:54.245Z,27.87
2022-11-26T01:58:29.215Z,27.70
2022-11-26T02:00:56.745Z,24.10
2022-11-26T02:03:24.982Z,25.80
2022-11-26T02:06:08.748Z,22.45
2022-11-26T02:08:36.696Z,27.60
2022-11-26T02:11:24.548Z,27.63
2022-11-26T02:13:56.267Z,29.27
2022-11-26T02:16:45.805Z,25.88
2022-11-26T02:19:50.348Z,23.85
2022-11-26T02:23:20.660Z,24.45
2022-11-26T02:26:57.859Z,25.05
2022-11-26T02:30:10.861Z,30.98
2022-11-26T02:33:07.883Z,21.17
2022-11-26T02:35:48.465Z,23.15
2022-11-26T02:38:24.431Z,23.95
2022-11-26T02:40:53.091Z,21.02
2022-11-26T02:43:20.604Z,24.95
2022-11-26T02:45:54.404Z,26.52
2022-11-26T02:48:29.721Z,20.10
2022-11-26T02:51:10.567Z,22.23
2022-11-26T02:56:19.895Z,21.83
2022-11-26T02:58:50.295Z,22.73
2022-11-26T03:01:29.565Z,19.58
2022-11-26T03:04:03.270Z,22.52
2022-11-26T03:06:34.435Z,19.70
2022-11-26T03:09:01.912Z,18.38
2022-11-26T03:11:29.286Z,22.67
2022-11-26T03:13:56.599Z,19.90
2022-11-26T03:16:23.863Z,17.75
2022-11-26T03:18:51.425Z,21.35
2022-11-26T03:21:18.577Z,18.38
2022-11-26T03:23:45.913Z,22.65
2022-11-26T03:26:13.136Z,17.45
2022-11-26T03:28:40.368Z,22.42
2022-11-26T03:31:07.749Z,18.88
2022-11-26T03:33:35.017Z,19.65
2022-11-26T03:36:02.220Z,23.52
2022-11-26T03:38:29.470Z,19.80
2022-11-26T03:41:03.993Z,17.00
2022-11-26T03:43:31.394Z,19.48
2022-11-26T03:45:58.689Z,16.85
2022-11-26T03:48:25.939Z,15.45
2022-11-26T03:50:53.239Z,10.77
2022-11-26T03:53:20.527Z,14.85
2022-11-26T03:55:48.034Z,15.80
2022-11-26T03:58:15.374Z,10.50
2022-11-26T04:00:42.823Z,12.88
2022-11-26T04:03:10.098Z,18.80
2022-11-26T04:05:37.502Z,11.02
2022-11-26T04:08:04.795Z,13.43
2022-11-26T04:10:32.220Z,11.52
2022-11-26T04:12:59.372Z,13.00
2022-11-26T04:15:26.513Z,17.08
2022-11-26T04:17:53.734Z,15.60
2022-11-26T04:20:20.884Z,13.98
2022-11-26T04:22:48.061Z,12.35
2022-11-26T04:25:15.310Z,15.35
2022-11-26T04:27:42.447Z,15.15
2022-11-26T04:30:10.507Z,13.73
2022-11-26T04:32:39.940Z,17.40
2022-11-26T04:35:08.752Z,14.07
2022-11-26T04:37:36.339Z,18.55
2022-11-26T04:40:04.047Z,14.85
2022-11-26T04:42:31.285Z,12.57
2022-11-26T04:44:58.676Z,12.35
2022-11-26T04:47:25.865Z,16.13
2022-11-26T04:49:53.170Z,15.77
2022-11-26T04:52:20.718Z,17.58
2022-11-26T04:54:47.987Z,15.43
2022-11-26T04:57:15.195Z,15.20
2022-11-26T04:59:42.361Z,13.40
2022-11-26T05:02:09.749Z,16.73
2022-11-26T05:04:37.157Z,10.32
2022-11-26T05:07:04.963Z,15.95
2022-11-26T05:09:32.289Z,14.85
2022-11-26T05:11:59.504Z,13.85
2022-11-26T05:14:26.998Z,14.10
2022-11-26T05:16:54.202Z,13.52
2022-11-26T05:19:21.507Z,16.50
2022-11-26T05:21:48.749Z,15.02
2022-11-26T05:24:16.058Z,17.45
2022-11-26T05:26:43.222Z,24.15
2022-11-26T05:29:10.457Z,16.73
2022-11-26T05:31:37.844Z,13.95
2022-11-26T05:34:05.327Z,13.20
2022-11-26T05:36:32.538Z,14.13
2022-11-26T05:38:59.770Z,22.13
2022-11-26T05:41:27.076Z,16.83
2022-11-26T05:43:54.407Z,16.23
2022-11-26T05:46:21.764Z,18.27
2022-11-26T05:48:48.979Z,20.20
2022-11-26T05:51:16.200Z,14.63
2022-11-26T05:53:43.575Z,17.80
2022-11-26T05:56:10.995Z,23.02
2022-11-26T05:58:38.214Z,13.95
2022-11-26T06:01:09.472Z,15.20
2022-11-26T06:03:37.677Z,14.68
2022-11-26T06:06:05.643Z,19.10
2022-11-26T06:08:33.377Z,12.15
2022-11-26T06:11:00.496Z,17.77
2022-11-26T06:13:27.841Z,14.85
2022-11-26T06:15:55.312Z,14.00
2022-11-26T06:18:22.607Z,22.63
2022-11-26T06:20:49.746Z,14.85
2022-11-26T06:23:16.946Z,16.95
2022-11-26T06:25:44.407Z,16.55
2022-11-26T06:28:11.619Z,22.80
2022-11-26T06:30:38.812Z,26.90
2022-11-26T06:33:06.079Z,28.27
2022-11-26T06:35:33.322Z,15.52
2022-11-26T06:38:00.561Z,21.35
2022-11-26T06:40:27.774Z,33.50
2022-11-26T06:42:55.117Z,40.70
2022-11-26T06:45:23.783Z,24.42
2022-11-26T06:47:52.323Z,31.88
2022-11-26T06:50:22.102Z,26.90
2022-11-26T06:52:54.279Z,30.10
2022-11-26T06:55:21.977Z,67.95
2022-11-26T06:57:52.865Z,49.42
2022-11-26T07:00:20.586Z,29.35
2022-11-26T07:02:48.284Z,24.52
2022-11-26T07:05:15.657Z,27.25
2022-11-26T07:07:42.951Z,24.15
2022-11-26T07:10:10.741Z,51.85
2022-11-26T07:12:38.035Z,46.97
2022-11-26T07:15:06.248Z,27.73
2022-11-26T07:17:33.765Z,36.85
2022-11-26T07:20:01.121Z,35.45
2022-11-26T07:22:28.330Z,77.55
2022-11-26T07:24:55.610Z,34.08
2022-11-26T07:27:22.781Z,36.13
2022-11-26T07:29:51.901Z,26.02
2022-11-26T07:32:19.866Z,26.55
2022-11-26T07:34:47.371Z,22.75
2022-11-26T07:37:14.574Z,27.30
2022-11-26T07:39:41.960Z,31.98
2022-11-26T07:42:09.235Z,44.45
2022-11-26T07:44:37.027Z,74.80
2022-11-26T07:47:04.712Z,39.25
2022-11-26T07:49:32.016Z,37.05
2022-11-26T07:51:59.317Z,27.90
2022-11-26T07:54:26.539Z,26.48
2022-11-26T07:56:54.112Z,29.63
2022-11-26T07:59:22.655Z,31.23
2022-11-26T08:01:49.977Z,26.10
2022-11-26T08:04:17.335Z,33.30
2022-11-26T08:06:44.693Z,26.23
2022-11-26T08:09:12.475Z,30.33
2022-11-26T08:11:39.767Z,31.10
2022-11-26T08:14:11.942Z,28.52
2022-11-26T08:16:39.802Z,31.42
2022-11-26T08:19:11.508Z,27.33
2022-11-26T08:21:39.923Z,26.13
2022-11-26T08:24:12.705Z,29.42
2022-11-26T08:26:44.245Z,27.75
2022-11-26T08:29:13.458Z,30.52
2022-11-26T08:31:45.798Z,31.10
2022-11-26T08:34:16.510Z,40.80
2022-11-26T08:36:45.170Z,48.83
2022-11-26T08:39:18.165Z,46.00
2022-11-26T08:41:50.553Z,34.55
2022-11-26T08:44:19.656Z,46.03
2022-11-26T08:46:47.032Z,37.97
2022-11-26T08:49:15.212Z,34.75
2022-11-26T08:51:43.872Z,72.88
2022-11-26T08:54:11.951Z,34.38
2022-11-26T08:56:39.277Z,33.90
2022-11-26T08:59:06.572Z,45.83
2022-11-26T09:01:34.993Z,48.60
2022-11-26T09:04:03.990Z,34.97
2022-11-26T09:06:34.092Z,33.80
2022-11-26T09:09:14.469Z,31.92
2022-11-26T09:14:31.723Z,34.25
2022-11-26T09:16:59.843Z,37.55
2022-11-26T09:19:28.829Z,38.03
2022-11-26T09:21:56.383Z,32.40
2022-11-26T09:24:23.715Z,32.88
2022-11-26T09:26:51.131Z,35.97
2022-11-26T09:29:21.999Z,34.88
2022-11-26T09:34:39.021Z,38.33
2022-11-26T09:37:07.008Z,60.78
2022-11-26T09:39:34.355Z,52.42
2022-11-26T09:42:37.832Z,63.63
2022-11-26T09:45:42.406Z,43.97
2022-11-26T09:48:22.958Z,63.53
2022-11-26T09:50:55.332Z,57.92
2022-11-26T09:53:31.926Z,47.95
2022-11-26T09:56:01.367Z,56.33
2022-11-26T09:58:39.059Z,74.80
2022-11-26T10:01:07.733Z,48.08
2022-11-26T10:03:37.899Z,44.13
2022-11-26T10:06:30.989Z,45.28
2022-11-26T10:09:15.170Z,49.40
2022-11-26T10:12:25.835Z,39.72
2022-11-26T10:15:50.515Z,45.15
2022-11-26T10:18:35.610Z,39.55
2022-11-26T10:21:57.202Z,43.42
2022-11-26T10:24:42.241Z,45.47
2022-11-26T10:27:18.390Z,52.00
2022-11-26T10:30:17.156Z,48.78
2022-11-26T10:32:47.187Z,41.95
2022-11-26T10:35:33.319Z,52.78
2022-11-26T10:38:01.017Z,44.85
2022-11-26T10:40:31.135Z,50.80
2022-11-26T10:43:25.001Z,46.85
2022-11-26T10:45:56.024Z,49.95
2022-11-26T10:48:32.653Z,53.38
2022-11-26T10:51:23.827Z,51.47
2022-11-26T10:54:04.442Z,54.80
2022-11-26T10:56:44.767Z,49.90
2022-11-26T10:59:30.438Z,51.03
2022-11-26T11:02:05.737Z,42.00
2022-11-26T11:04:40.294Z,50.10
2022-11-26T11:07:45.514Z,40.55
2022-11-26T11:10:12.609Z,47.00
2022-11-26T11:13:01.923Z,38.10
2022-11-26T11:15:35.649Z,44.05
2022-11-26T11:18:17.698Z,48.25
2022-11-26T11:20:55.827Z,40.17
2022-11-26T11:23:52.263Z,38.92
2022-11-26T11:26:24.113Z,32.50
2022-11-26T11:28:56.670Z,34.95
2022-11-26T11:31:27.256Z,32.83
2022-11-26T11:34:27.672Z,37.95
2022-11-26T11:37:14.779Z,38.47
2022-11-26T11:39:43.821Z,41.55
2022-11-26T11:42:40.508Z,43.58
2022-11-26T11:45:28.417Z,41.45
2022-11-26T11:48:01.613Z,46.15
2022-11-26T11:51:13.567Z,41.50
2022-11-26T11:54:14.728Z,34.15
2022-11-26T11:56:57.635Z,30.20
2022-11-26T11:59:47.777Z,37.95
2022-11-26T12:02:37.127Z,34.55
2022-11-26T12:05:26.273Z,35.67
2022-11-26T12:08:07.275Z,44.92
2022-11-26T12:10:58.511Z,28.35
2022-11-26T12:13:27.287Z,34.38
2022-11-26T12:16:07.262Z,38.67
2022-11-26T12:19:05.294Z,34.47
2022-11-26T12:21:51.075Z,31.23
2022-11-26T12:24:46.540Z,29.50
2022-11-26T12:27:43.231Z,34.67
2022-11-26T12:30:26.624Z,32.63
2022-11-26T12:33:18.065Z,37.70
2022-11-26T12:35:58.977Z,33.50
2022-11-26T12:41:09.689Z,32.25
2022-11-26T12:44:14.804Z,29.45
2022-11-26T12:46:46.857Z,39.85
2022-11-26T12:49:35.832Z,27.73
2022-11-26T12:52:14.361Z,31.55
2022-11-26T12:54:50.228Z,31.83
2022-11-26T12:57:34.196Z,29.60
2022-11-26T13:00:06.934Z,34.38
2022-11-26T13:02:58.893Z,37.22
2022-11-26T13:05:37.703Z,32.67
2022-11-26T13:08:17.594Z,30.27
2022-11-26T13:11:09.945Z,28.00
2022-11-26T13:14:11.336Z,27.80
2022-11-26T13:17:40.904Z,25.33
2022-11-26T13:20:33.915Z,28.00
2022-11-26T13:23:43.556Z,27.77
2022-11-26T13:26:19.708Z,25.98
2022-11-26T13:29:17.447Z,24.55
2022-11-26T13:32:02.502Z,30.02
2022-11-26T13:34:58.797Z,31.60
2022-11-26T13:38:32.050Z,29.60
2022-11-26T13:41:36.552Z,26.45
2022-11-26T13:44:52.961Z,23.77
2022-11-26T13:47:34.638Z,26.48
2022-11-26T13:50:43.663Z,24.92
2022-11-26T13:53:15.544Z,24.10
2022-11-26T13:56:05.797Z,26.42
2022-11-26T13:58:47.100Z,25.98
2022-11-26T14:01:34.084Z,24.58
2022-11-26T14:04:03.484Z,21.23
2022-11-26T14:06:31.244Z,20.58
2022-11-26T14:08:58.709Z,20.15
2022-11-26T14:11:41.024Z,21.63
2022-11-26T14:14:28.450Z,24.55
2022-11-26T14:17:01.190Z,23.17
2022-11-26T14:19:40.346Z,19.75
2022-11-26T14:22:22.319Z,17.83
2022-11-26T14:24:52.167Z,20.40
2022-11-26T14:27:25.162Z,23.55
2022-11-26T14:30:13.595Z,18.10
2022-11-26T14:32:51.727Z,19.98
2022-11-26T14:35:35.022Z,17.90
2022-11-26T14:38:26.544Z,18.38
2022-11-26T14:41:01.447Z,17.23
2022-11-26T14:43:29.759Z,19.33
2022-11-26T14:46:05.898Z,19.92
2022-11-26T14:48:37.373Z,15.45
2022-11-26T14:51:08.500Z,17.10
2022-11-26T14:53:40.777Z,18.88
2022-11-26T14:56:10.579Z,17.10
2022-11-26T14:58:45.011Z,15.02
2022-11-26T15:01:25.721Z,18.95
2022-11-26T15:04:07.215Z,18.65
2022-11-26T15:06:42.590Z,20.90
2022-11-26T15:09:24.415Z,21.30
2022-11-26T15:12:05.820Z,17.08
2022-11-26T15:14:44.505Z,17.75
2022-11-26T15:17:16.876Z,22.02
2022-11-26T15:19:44.994Z,17.90
2022-11-26T15:22:38.481Z,17.83
2022-11-26T15:25:16.065Z,16.42
2022-11-26T15:28:01.907Z,96.70
2022-11-26T15:30:35.904Z,42.65
2022-11-26T15:33:14.345Z,21.23
2022-11-26T15:35:43.799Z,19.63
2022-11-26T15:38:21.001Z,22.33
2022-11-26T15:40:59.165Z,22.75
2022-11-26T15:43:54.790Z,24.70
2022-11-26T15:46:42.084Z,30.05
2022-11-26T15:49:28.171Z,22.33
2022-11-26T15:52:09.987Z,29.45
2022-11-26T15:55:10.850Z,26.85
2022-11-26T15:57:41.018Z,29.40
2022-11-26T16:00:51.630Z,30.35
2022-11-26T16:03:49.344Z,31.70
2022-11-26T16:06:44.577Z,33.20
2022-11-26T16:09:17.610Z,40.58
2022-11-26T16:12:00.130Z,39.22
2022-11-26T16:14:35.945Z,39.67
2022-11-26T16:17:13.169Z,42.42
2022-11-26T16:20:03.484Z,47.72
2022-11-26T16:22:34.222Z,53.83
2022-11-26T16:27:35.426Z,49.33
2022-11-26T16:30:14.589Z,45.53
2022-11-26T16:32:41.869Z,50.05
2022-11-26T16:35:37.715Z,45.65
2022-11-26T16:37:56.812Z,49.92
2022-11-26T16:40:24.771Z,47.40
2022-11-26T16:42:52.414Z,346.02
2022-11-26T16:45:20.278Z,73.28
2022-11-26T16:47:52.002Z,92.70
2022-11-26T16:50:23.303Z,341.88
2022-11-26T16:52:50.762Z,620.40
2022-11-26T16:55:22.569Z,765.95
2022-11-26T16:57:54.186Z,1336.38
2022-11-26T17:00:25.773Z,77.30
2022-11-26T17:02:54.279Z,59.33
2022-11-26T17:05:22.683Z,54.15
2022-11-26T17:07:57.694Z,50.10
2022-11-26T17:10:29.279Z,49.15
2022-11-26T17:12:57.665Z,48.65
2022-11-26T17:15:24.966Z,45.33
2022-11-26T17:18:05.693Z,248.10
2022-11-26T17:20:34.258Z,58.20
2022-11-26T17:23:01.614Z,33.17
2022-11-26T17:25:28.894Z,32.90
2022-11-26T17:27:56.350Z,31.92
2022-11-26T17:30:24.637Z,35.15
2022-11-26T17:32:52.347Z,33.50
2022-11-26T17:35:19.968Z,28.13
2022-11-26T17:37:47.509Z,36.60
2022-11-26T17:40:21.220Z,29.90
2022-11-26T17:42:49.944Z,28.13
2022-11-26T17:45:18.956Z,29.77
2022-11-26T17:47:46.854Z,30.77
2022-11-26T17:50:27.637Z,29.75
2022-11-26T17:55:24.860Z,32.05
2022-11-26T17:57:52.909Z,31.42
2022-11-26T18:00:25.724Z,31.23
2022-11-26T18:02:53.082Z,35.67
2022-11-26T18:05:21.033Z,35.30
2022-11-26T18:07:49.962Z,37.05
2022-11-26T18:10:20.449Z,40.47
2022-11-26T18:12:48.532Z,40.83
2022-11-26T18:15:25.989Z,45.90
2022-11-26T18:17:55.327Z,47.63
2022-11-26T18:20:27.644Z,50.33
2022-11-26T18:22:58.930Z,41.55
2022-11-26T18:25:26.832Z,46.30
2022-11-26T18:27:54.545Z,53.47
2022-11-26T18:30:22.339Z,55.55
2022-11-26T18:32:49.696Z,65.50
2022-11-26T18:35:17.881Z,73.93
2022-11-26T18:37:45.400Z,76.82
2022-11-26T18:40:17.232Z,76.68
2022-11-26T18:42:45.186Z,73.82
2022-11-26T18:45:15.875Z,79.40
2022-11-26T18:50:13.193Z,74.60
2022-11-26T18:52:40.523Z,72.28
2022-11-26T18:55:09.657Z,72.45
2022-11-26T18:57:37.215Z,73.93
2022-11-26T19:00:06.757Z,65.82
2022-11-26T19:02:37.166Z,67.65
2022-11-26T19:05:05.664Z,69.03
2022-11-26T19:07:33.395Z,80.93
2022-11-26T19:10:00.834Z,68.85
2022-11-26T19:12:28.194Z,74.13
2022-11-26T19:14:55.376Z,81.57
2022-11-26T19:17:22.837Z,81.75
2022-11-26T19:19:50.156Z,80.93
2022-11-26T19:22:17.586Z,78.63
2022-11-26T19:24:44.855Z,81.93
2022-11-26T19:27:13.715Z,77.32
2022-11-26T19:29:41.313Z,78.75
2022-11-26T19:32:08.994Z,74.93
2022-11-26T19:34:36.532Z,80.20
2022-11-26T19:37:04.576Z,81.05
2022-11-26T19:39:32.567Z,73.07
2022-11-26T19:42:00.401Z,91.43
2022-11-26T19:44:27.865Z,78.35
2022-11-26T19:46:55.300Z,70.30
2022-11-26T19:49:23.263Z,75.53
2022-11-26T19:51:50.629Z,71.68
2022-11-26T19:54:17.945Z,77.20
2022-11-26T19:56:46.017Z,76.35
2022-11-26T19:59:13.431Z,82.60
2022-11-26T20:01:41.260Z,75.45
2022-11-26T20:07:35.881Z,72.40
2022-11-26T20:10:03.797Z,78.30
2022-11-26T20:12:31.176Z,74.15
2022-11-26T20:14:59.399Z,72.05
2022-11-26T20:17:26.751Z,74.00
2022-11-26T20:19:54.291Z,69.80
2022-11-26T20:22:21.657Z,74.07
2022-11-26T20:24:49.143Z,74.53
2022-11-26T20:27:16.558Z,66.85
2022-11-26T20:29:43.866Z,73.38
2022-11-26T20:32:12.064Z,77.40
2022-11-26T20:34:39.461Z,69.60
2022-11-26T20:37:06.809Z,69.65
2022-11-26T20:39:34.329Z,69.88
2022-11-26T20:42:01.656Z,73.38
2022-11-26T20:44:29.160Z,76.72
2022-11-26T20:46:57.620Z,73.40
2022-11-26T20:49:27.489Z,83.22
2022-11-26T20:51:58.189Z,77.53
2022-11-26T20:54:25.796Z,89.18
2022-11-26T20:56:53.163Z,81.55
2022-11-26T20:59:20.601Z,75.90
2022-11-26T21:01:48.076Z,73.45
2022-11-26T21:04:15.626Z,79.40
2022-11-26T21:06:44.314Z,95.63
2022-11-26T21:09:13.287Z,89.63
2022-11-26T21:11:41.578Z,79.85
2022-11-26T21:14:14.605Z,81.80
2022-11-26T21:16:42.713Z,77.80
2022-11-26T21:19:12.585Z,91.88
2022-11-26T21:21:40.360Z,93.77
2022-11-26T21:24:08.540Z,86.78
2022-11-26T21:26:35.867Z,94.47
2022-11-26T21:29:03.605Z,105.25
2022-11-26T21:31:32.262Z,81.25
2022-11-26T21:34:03.213Z,92.90
2022-11-26T21:36:33.307Z,102.80
2022-11-26T21:39:01.137Z,85.40
2022-11-26T21:41:28.637Z,94.35
2022-11-26T21:43:56.035Z,90.35
2022-11-26T21:46:27.396Z,84.72
2022-11-26T21:48:56.625Z,93.85
2022-11-26T21:51:27.739Z,93.15
2022-11-26T21:53:57.058Z,84.32
2022-11-26T21:56:31.149Z,82.35
2022-11-26T21:59:00.548Z,84.68
2022-11-26T22:01:35.275Z,84.47
2022-11-26T22:04:09.800Z,90.82
2022-11-26T22:06:38.288Z,80.00
2022-11-26T22:09:07.049Z,86.32
2022-11-26T22:11:38.907Z,79.80
2022-11-26T22:14:08.985Z,74.63
2022-11-26T22:16:37.221Z,79.80
2022-11-26T22:19:05.427Z,84.20
2022-11-26T22:21:41.875Z,83.72
2022-11-26T22:24:16.431Z,77.47
2022-11-26T22:26:44.610Z,84.53
2022-11-26T22:29:14.812Z,74.82
2022-11-26T22:31:43.032Z,87.18
2022-11-26T22:34:16.170Z,90.75
2022-11-26T22:36:44.845Z,78.53
2022-11-26T22:39:15.819Z,85.82
2022-11-26T22:41:44.836Z,127.18
2022-11-26T22:44:13.974Z,79.97
2022-11-26T22:46:41.341Z,80.78
2022-11-26T22:49:13.723Z,83.32
2022-11-26T22:51:41.076Z,87.22
2022-11-26T22:54:11.740Z,77.78
2022-11-26T22:56:39.617Z,89.75
2022-11-26T22:59:10.631Z,103.25
2022-11-26T23:01:37.979Z,73.82
2022-11-26T23:04:09.026Z,96.28
2022-11-26T23:06:37.222Z,87.40
2022-11-26T23:09:07.662Z,85.47
2022-11-26T23:11:39.616Z,98.15
2022-11-26T23:14:09.504Z,92.28
2022-11-26T23:16:40.156Z,76.18
2022-11-26T23:19:08.134Z,87.53
2022-11-26T23:21:40.431Z,79.82
2022-11-26T23:24:08.572Z,86.10
2022-11-26T23:26:38.825Z,76.25
2022-11-26T23:29:07.678Z,96.38
2022-11-26T23:31:43.979Z,89.25
2022-11-26T23:34:11.970Z,94.05
2022-11-26T23:36:39.832Z,80.72
2022-11-26T23:39:10.983Z,90.68
2022-11-26T23:41:38.253Z,83.28
2022-11-26T23:44:05.693Z,97.85
2022-11-26T23:46:35.373Z,102.35
2022-11-26T23:49:03.284Z,85.60
2022-11-26T23:51:32.690Z,84.13
2022-11-26T23:54:00.074Z,89.57
2022-11-26T23:56:32.962Z,98.38
2022-11-26T23:59:03.099Z,94.25
